03:09
Airports
Links
Donate
Help keep this website running!
PayPal
Bitcoin
METAR
KMVL 180254Z AUTO 18010G20KT 10SM BKN070 OVC080 M01/M12 A3003 RMK AO2 SLP181 T10061117 56019
Current Weather Conditions at KMVL
VFR 02:54:00 18-02-18
Automated station, no observer
Altimeter:30.03 hg
Temp:-0.6°c 32°f
Dew point:-11.7°c 12°f
Wind:10 knots, 11.5 mph, 5 m/s, from 180°
Visibility:10.0 statute miles
8000(OVC) Overcast
7000(BKN) Broken
Past METAR reports
VFR 01:54:00 18-02-18
Automated station, no observer
Altimeter:30.04 hg
Temp:-0.6°c 32°f
Dew point:-12.2°c 10°f
Wind:11 knots, 12.7 mph, 6 m/s, from 170°
Visibility:10.0 statute miles
12000(BKN) Broken
9500(BKN) Broken
KMVL 180154Z AUTO 17011G18KT 10SM BKN095 BKN120 M01/M12 A3004 RMK AO2 SLP185 T10061122
VFR 00:54:00 18-02-18
Automated station, no observer
Altimeter:30.06 hg
Temp:-0.6°c 32°f
Dew point:-12.8°c 10°f
Wind:8 knots, 9.2 mph, 4 m/s, from 180°
Visibility:10.0 statute miles
(CLR) Clear
KMVL 180054Z AUTO 18008G19KT 10SM CLR M01/M13 A3006 RMK AO2 SLP195 T10061128
VFR 23:54:00 17-02-18
Automated station, no observer
Altimeter:30.09 hg
Temp:0.0°c 32°f
Dew point:-13.9°cf
Wind:14 knots, 16.1 mph, 7 m/s, from 200°
Visibility:10.0 statute miles
(CLR) Clear
KMVL 172354Z AUTO 20014G21KT 10SM CLR 00/M14 A3009 RMK AO2 SLP203 T00001139 10000 21022 56023
VFR 22:54:00 17-02-18
Automated station, no observer
Altimeter:30.11 hg
Temp:-0.6°c 32°f
Dew point:-14.4°cf
Wind:9 knots, 10.4 mph, 5 m/s, from 190°
Visibility:10.0 statute miles
(CLR) Clear
KMVL 172254Z AUTO 19009KT 10SM CLR M01/M14 A3011 RMK AO2 SLP210 T10061144
VFR 21:54:00 17-02-18
Automated station, no observer
Altimeter:30.12 hg
Temp:-1.1°c 30°f
Dew point:-13.9°cf
Wind:12 knots, 13.8 mph, 6 m/s, from 170°
Visibility:10.0 statute miles
(CLR) Clear
KMVL 172154Z AUTO 17012KT 10SM CLR M01/M14 A3012 RMK AO2 SLP214 T10111139
TAF
No TAF for KMVL
Forecast at KMVL
No Forecast Reports for KMVL